createdAt,value
2022-10-11T00:01:00.208Z,14.73
2022-10-11T00:04:01.969Z,14.72
2022-10-11T00:07:03.897Z,14.76
2022-10-11T00:10:06.830Z,14.79
2022-10-11T00:13:08.961Z,14.81
2022-10-11T00:16:12.131Z,14.79
2022-10-11T00:19:14.385Z,14.80
2022-10-11T00:22:16.157Z,14.77
2022-10-11T00:25:18.371Z,14.82
2022-10-11T00:28:20.119Z,14.71
2022-10-11T00:31:21.926Z,14.71
2022-10-11T00:34:23.963Z,14.79
2022-10-11T00:37:25.846Z,14.88
2022-10-11T00:40:27.562Z,14.81
2022-10-11T00:43:31.737Z,14.95
2022-10-11T00:46:33.648Z,14.94
2022-10-11T00:49:43.371Z,14.92
2022-10-11T00:52:50.327Z,14.89
2022-10-11T00:55:58.923Z,14.91
2022-10-11T00:59:04.417Z,14.95
2022-10-11T01:02:07.590Z,14.96
2022-10-11T01:05:28.510Z,14.92
2022-10-11T01:08:31.742Z,14.83
2022-10-11T01:11:35.860Z,14.84
2022-10-11T01:14:52.679Z,14.91
2022-10-11T01:18:19.004Z,14.93
2022-10-11T01:21:27.410Z,14.92
2022-10-11T01:24:56.993Z,14.91
2022-10-11T01:28:32.567Z,14.93
2022-10-11T01:31:52.420Z,14.95
2022-10-11T01:35:06.431Z,14.94
2022-10-11T01:38:17.100Z,14.96
2022-10-11T01:41:27.071Z,14.94
2022-10-11T01:44:29.404Z,14.96
2022-10-11T01:47:31.628Z,15.02
2022-10-11T01:50:35.436Z,15.00
2022-10-11T01:53:59.623Z,14.95
2022-10-11T01:57:19.802Z,14.90
2022-10-11T02:00:24.660Z,14.90
2022-10-11T02:03:43.589Z,14.94
2022-10-11T02:07:01.192Z,14.96
2022-10-11T02:10:05.983Z,14.97
2022-10-11T02:13:20.129Z,14.93
2022-10-11T02:16:31.637Z,14.89
2022-10-11T02:19:39.440Z,14.87
2022-10-11T02:22:45.999Z,14.80
2022-10-11T02:25:49.189Z,14.77
2022-10-11T02:28:53.250Z,14.86
2022-10-11T02:31:58.357Z,14.91
2022-10-11T02:35:02.198Z,14.66
2022-10-11T02:38:26.607Z,14.86
2022-10-11T02:41:36.525Z,14.73
2022-10-11T02:44:46.639Z,14.66
2022-10-11T02:47:48.669Z,14.64
2022-10-11T02:50:50.369Z,14.54
2022-10-11T02:53:52.063Z,14.53
2022-10-11T02:56:53.726Z,14.41
2022-10-11T02:59:55.461Z,14.37
2022-10-11T03:02:57.146Z,14.36
2022-10-11T03:06:03.864Z,14.33
2022-10-11T03:09:05.866Z,14.23
2022-10-11T03:12:07.632Z,14.23
2022-10-11T03:15:09.794Z,14.09
2022-10-11T03:18:11.402Z,14.14
2022-10-11T03:21:13.335Z,14.20
2022-10-11T03:24:15.119Z,14.22
2022-10-11T03:27:16.902Z,14.18
2022-10-11T03:30:20.208Z,14.16
2022-10-11T03:33:21.905Z,14.06
2022-10-11T03:36:23.623Z,14.05
2022-10-11T03:39:25.284Z,14.01
2022-10-11T03:42:27.158Z,14.01
2022-10-11T03:45:28.768Z,14.02
2022-10-11T03:48:30.399Z,14.07
2022-10-11T03:51:32.008Z,13.98
2022-10-11T03:54:33.697Z,14.01
2022-10-11T03:57:35.615Z,13.87
2022-10-11T04:00:40.435Z,13.77
2022-10-11T04:03:42.166Z,13.84
2022-10-11T04:06:43.830Z,13.78
2022-10-11T04:09:45.605Z,13.77
2022-10-11T04:12:47.274Z,13.69
2022-10-11T04:15:48.966Z,13.51
2022-10-11T04:18:50.614Z,13.58
2022-10-11T04:21:52.353Z,13.57
2022-10-11T04:24:54.199Z,13.48
2022-10-11T04:27:56.132Z,13.34
2022-10-11T04:30:57.891Z,13.15
2022-10-11T04:33:59.575Z,13.26
2022-10-11T04:37:01.222Z,13.24
2022-10-11T04:40:03.738Z,13.26
2022-10-11T04:43:05.452Z,13.29
2022-10-11T04:46:08.519Z,13.31
2022-10-11T04:49:10.529Z,13.27
2022-10-11T04:52:12.149Z,13.26
2022-10-11T04:55:13.870Z,13.24
2022-10-11T04:58:15.478Z,13.19
2022-10-11T05:01:17.287Z,13.32
2022-10-11T05:04:18.958Z,13.40
2022-10-11T05:07:20.608Z,13.29
2022-10-11T05:10:22.261Z,13.10
2022-10-11T05:13:24.740Z,13.21
2022-10-11T05:16:26.469Z,13.25
2022-10-11T05:19:28.157Z,13.18
2022-10-11T05:22:29.779Z,13.13
2022-10-11T05:25:31.543Z,13.11
2022-10-11T05:28:33.295Z,13.11
2022-10-11T05:31:34.924Z,13.06
2022-10-11T05:34:36.600Z,12.99
2022-10-11T05:37:38.302Z,12.99
2022-10-11T05:40:40.534Z,12.82
2022-10-11T05:43:42.617Z,12.83
2022-10-11T05:46:44.302Z,12.89
2022-10-11T05:49:45.923Z,12.81
2022-10-11T05:52:47.665Z,12.83
2022-10-11T05:55:49.255Z,12.60
2022-10-11T05:58:51.621Z,12.55
2022-10-11T06:01:53.314Z,12.52
2022-10-11T06:04:54.927Z,12.53
2022-10-11T06:07:58.228Z,12.50
2022-10-11T06:11:11.968Z,12.45
2022-10-11T06:14:13.757Z,12.34
2022-10-11T06:17:15.434Z,12.36
2022-10-11T06:20:17.287Z,12.36
2022-10-11T06:23:18.919Z,12.36
2022-10-11T06:26:21.032Z,12.47
2022-10-11T06:29:22.730Z,12.65
2022-10-11T06:32:25.344Z,12.76
2022-10-11T06:35:27.289Z,12.70
2022-10-11T06:38:28.983Z,12.76
2022-10-11T06:41:31.294Z,12.77
2022-10-11T06:44:33.400Z,12.81
2022-10-11T06:47:35.014Z,12.86
2022-10-11T06:50:58.603Z,12.87
2022-10-11T06:54:01.817Z,12.85
2022-10-11T06:57:03.642Z,12.83
2022-10-11T07:00:10.309Z,12.84
2022-10-11T07:03:14.168Z,12.80
2022-10-11T07:06:18.419Z,12.80
2022-10-11T07:09:20.100Z,12.83
2022-10-11T07:12:21.759Z,12.78
2022-10-11T07:15:24.202Z,12.79
2022-10-11T07:18:27.174Z,12.81
2022-10-11T07:21:30.991Z,12.83
2022-10-11T07:24:32.761Z,12.91
2022-10-11T07:27:34.433Z,12.91
2022-10-11T07:30:39.378Z,12.94
2022-10-11T07:33:41.745Z,13.04
2022-10-11T07:36:43.370Z,13.11
2022-10-11T07:39:45.003Z,13.30
2022-10-11T07:42:46.615Z,13.47
2022-10-11T07:45:54.244Z,13.83
2022-10-11T07:48:56.181Z,14.02
2022-10-11T07:51:57.783Z,14.14
2022-10-11T07:54:59.436Z,14.03
2022-10-11T07:58:01.128Z,14.02
2022-10-11T08:01:02.994Z,14.29
2022-10-11T08:04:05.122Z,14.63
2022-10-11T08:07:06.831Z,14.77
2022-10-11T08:10:09.397Z,14.57
2022-10-11T08:13:11.122Z,14.64
2022-10-11T08:16:13.522Z,14.68
2022-10-11T08:19:16.199Z,14.41
2022-10-11T08:22:18.355Z,14.36
2022-10-11T08:25:19.938Z,14.38
2022-10-11T08:28:21.621Z,14.48
2022-10-11T08:31:23.500Z,14.48
2022-10-11T08:34:25.174Z,14.48
2022-10-11T08:37:27.132Z,14.60
2022-10-11T08:40:35.170Z,14.58
2022-10-11T08:44:11.939Z,14.70
2022-10-11T08:47:25.793Z,14.78
2022-10-11T08:50:28.093Z,14.70
2022-10-11T08:53:53.597Z,14.75
2022-10-11T08:56:55.358Z,14.61
2022-10-11T08:59:59.825Z,14.60
2022-10-11T09:03:17.470Z,14.68
2022-10-11T09:06:50.400Z,14.61
2022-10-11T09:10:05.266Z,14.58
2022-10-11T09:13:18.951Z,14.64
2022-10-11T09:16:58.819Z,14.64
2022-10-11T09:20:22.683Z,14.36
2022-10-11T09:24:02.046Z,14.41
2022-10-11T09:27:16.495Z,14.42
2022-10-11T09:30:20.399Z,14.32
2022-10-11T09:33:35.415Z,14.37
2022-10-11T09:36:44.775Z,14.54
2022-10-11T09:44:30.872Z,14.46
2022-10-11T09:47:39.891Z,14.60
2022-10-11T09:50:42.016Z,14.96
2022-10-11T09:54:04.158Z,15.22
2022-10-11T09:57:06.100Z,15.18
2022-10-11T10:00:20.047Z,15.19
2022-10-11T10:03:32.527Z,15.22
2022-10-11T10:06:35.076Z,15.39
2022-10-11T10:09:36.879Z,15.29
2022-10-11T10:12:38.508Z,15.40
2022-10-11T10:15:50.387Z,15.89
2022-10-11T10:19:25.406Z,16.59
2022-10-11T10:22:34.304Z,16.64
2022-10-11T10:25:43.316Z,16.89
2022-10-11T10:28:57.656Z,17.04
2022-10-11T10:32:14.223Z,17.24
2022-10-11T10:35:32.229Z,17.08
2022-10-11T10:38:40.042Z,17.06
2022-10-11T10:41:41.674Z,16.98
2022-10-11T10:44:44.266Z,16.65
2022-10-11T10:51:07.157Z,16.96
2022-10-11T10:54:32.188Z,17.05
2022-10-11T10:57:57.953Z,16.83
2022-10-11T11:01:26.052Z,17.07
2022-10-11T11:04:33.490Z,16.60
2022-10-11T11:07:50.118Z,16.74
2022-10-11T11:11:11.936Z,16.64
2022-10-11T11:14:38.175Z,16.62
2022-10-11T11:18:08.916Z,16.75
2022-10-11T11:21:28.931Z,16.94
2022-10-11T11:25:11.784Z,16.98
2022-10-11T11:28:42.763Z,16.90
2022-10-11T11:32:03.380Z,17.40
2022-10-11T11:35:14.989Z,17.64
2022-10-11T11:38:38.377Z,17.77
2022-10-11T11:41:48.052Z,17.67
2022-10-11T11:44:53.715Z,17.50
2022-10-11T11:48:02.121Z,17.47
2022-10-11T11:51:13.084Z,17.48
2022-10-11T11:54:43.253Z,17.60
2022-10-11T11:58:29.333Z,17.37
2022-10-11T12:01:42.486Z,18.28
2022-10-11T12:04:46.094Z,18.75
2022-10-11T12:07:53.331Z,18.99
2022-10-11T12:11:00.799Z,19.17
2022-10-11T12:14:27.470Z,18.96
2022-10-11T12:17:32.047Z,18.31
2022-10-11T12:20:41.840Z,17.53
2022-10-11T12:23:45.735Z,17.48
2022-10-11T12:26:50.208Z,17.53
2022-10-11T12:29:51.909Z,17.58
2022-10-11T12:33:13.714Z,17.41
2022-10-11T12:36:47.939Z,17.43
2022-10-11T12:40:38.411Z,17.00
2022-10-11T12:47:35.365Z,17.15
2022-10-11T12:50:37.015Z,17.30
2022-10-11T12:54:25.544Z,17.48
2022-10-11T12:57:46.328Z,17.35
2022-10-11T13:00:51.725Z,17.00
2022-10-11T13:04:11.830Z,16.70
2022-10-11T13:07:23.457Z,16.90
2022-10-11T13:10:31.280Z,16.99
2022-10-11T13:13:39.992Z,16.90
2022-10-11T13:17:02.315Z,16.77
2022-10-11T13:20:31.968Z,16.77
2022-10-11T13:23:44.280Z,16.81
2022-10-11T13:26:49.196Z,16.87
2022-10-11T13:29:54.454Z,16.86
2022-10-11T13:32:56.683Z,17.00
2022-10-11T13:36:00.854Z,16.87
2022-10-11T13:39:02.626Z,16.70
2022-10-11T13:42:14.393Z,16.68
2022-10-11T13:45:20.301Z,16.66
2022-10-11T13:48:22.294Z,16.71
2022-10-11T13:51:37.059Z,16.56
2022-10-11T13:55:10.420Z,16.54
2022-10-11T13:58:36.134Z,16.53
2022-10-11T14:01:41.194Z,16.63
2022-10-11T14:04:42.867Z,16.56
2022-10-11T14:07:47.751Z,16.63
2022-10-11T14:10:54.284Z,16.56
2022-10-11T14:13:58.357Z,16.62
2022-10-11T14:17:21.233Z,16.67
2022-10-11T14:20:30.797Z,16.59
2022-10-11T14:23:34.672Z,16.49
2022-10-11T14:26:42.119Z,16.56
2022-10-11T14:30:00.288Z,16.58
2022-10-11T14:33:06.964Z,16.59
2022-10-11T14:36:09.898Z,16.50
2022-10-11T14:39:21.361Z,16.36
2022-10-11T14:42:22.971Z,16.38
2022-10-11T14:45:24.974Z,16.36
2022-10-11T14:48:50.391Z,16.32
2022-10-11T14:51:50.201Z,16.23
2022-10-11T14:54:51.856Z,16.27
2022-10-11T14:57:53.488Z,16.17
2022-10-11T15:00:55.090Z,16.24
2022-10-11T15:03:56.819Z,16.18
2022-10-11T15:06:58.527Z,16.13
2022-10-11T15:10:02.823Z,16.03
2022-10-11T15:13:07.140Z,16.07
2022-10-11T15:16:10.714Z,16.10
2022-10-11T15:19:21.162Z,16.27
2022-10-11T15:22:22.840Z,16.14
2022-10-11T15:25:25.509Z,16.11
2022-10-11T15:28:29.935Z,16.12
2022-10-11T15:31:31.735Z,16.07
2022-10-11T15:34:33.384Z,15.94
2022-10-11T15:37:37.381Z,15.86
2022-10-11T15:40:39.430Z,15.83
2022-10-11T15:43:42.235Z,15.69
2022-10-11T15:46:43.893Z,15.74
2022-10-11T15:49:45.536Z,15.72
2022-10-11T15:52:47.357Z,15.76
2022-10-11T15:55:53.146Z,15.79
2022-10-11T15:58:54.773Z,15.63
2022-10-11T16:01:57.203Z,15.58
2022-10-11T16:04:59.117Z,15.44
2022-10-11T16:08:00.766Z,15.35
2022-10-11T16:11:04.302Z,15.50
2022-10-11T16:14:06.219Z,15.44
2022-10-11T16:17:07.928Z,15.48
2022-10-11T16:20:09.768Z,15.56
2022-10-11T16:23:12.785Z,15.56
2022-10-11T16:26:16.486Z,15.54
2022-10-11T16:29:18.141Z,15.51
2022-10-11T16:32:20.146Z,15.44
2022-10-11T16:35:22.397Z,15.40
2022-10-11T16:38:24.140Z,15.28
2022-10-11T16:41:26.197Z,15.07
2022-10-11T16:44:28.928Z,14.98
2022-10-11T16:47:32.896Z,14.83
2022-10-11T16:50:39.323Z,14.59
2022-10-11T16:53:41.351Z,14.57
2022-10-11T16:56:43.280Z,14.46
2022-10-11T16:59:45.520Z,14.35
2022-10-11T17:02:47.170Z,14.31
2022-10-11T17:05:48.820Z,14.24
2022-10-11T17:08:51.574Z,14.27
2022-10-11T17:11:54.106Z,14.27
2022-10-11T17:14:56.247Z,14.22
2022-10-11T17:17:58.053Z,14.25
2022-10-11T17:21:09.277Z,14.23
2022-10-11T17:24:10.908Z,14.19
2022-10-11T17:27:12.861Z,14.20
2022-10-11T17:30:15.054Z,14.32
2022-10-11T17:33:16.714Z,14.33
2022-10-11T17:36:36.005Z,14.43
2022-10-11T17:39:37.714Z,14.32
2022-10-11T17:42:39.359Z,14.06
2022-10-11T17:45:41.577Z,14.25
2022-10-11T17:48:44.623Z,14.27
2022-10-11T17:51:46.271Z,14.28
2022-10-11T17:54:47.890Z,14.20
2022-10-11T17:57:49.544Z,14.07
2022-10-11T18:00:51.223Z,14.10
2022-10-11T18:04:01.720Z,14.07
2022-10-11T18:07:03.355Z,13.91
2022-10-11T18:10:05.341Z,13.99
2022-10-11T18:13:07.934Z,14.01
2022-10-11T18:16:40.008Z,13.87
2022-10-11T18:19:41.661Z,13.69
2022-10-11T18:22:46.654Z,13.74
2022-10-11T18:25:51.316Z,13.83
2022-10-11T18:29:08.890Z,13.98
2022-10-11T18:32:13.266Z,13.82
2022-10-11T18:35:16.450Z,13.95
2022-10-11T18:38:18.949Z,13.85
2022-10-11T18:41:22.781Z,13.75
2022-10-11T18:44:25.379Z,13.68
2022-10-11T18:47:27.024Z,13.78
2022-10-11T18:50:28.837Z,13.79
2022-10-11T18:53:31.871Z,13.62
2022-10-11T18:56:35.491Z,13.59
2022-10-11T18:59:37.276Z,13.40
2022-10-11T19:02:39.242Z,13.63
2022-10-11T19:05:41.004Z,13.67
2022-10-11T19:08:51.525Z,13.74
2022-10-11T19:11:55.787Z,13.60
2022-10-11T19:14:59.208Z,13.55
2022-10-11T19:18:02.204Z,13.65
2022-10-11T19:21:07.379Z,13.63
2022-10-11T19:24:09.741Z,13.50
2022-10-11T19:27:11.416Z,13.48
2022-10-11T19:30:13.304Z,13.54
2022-10-11T19:33:15.745Z,13.47
2022-10-11T19:36:17.959Z,13.61
2022-10-11T19:39:21.426Z,13.59
2022-10-11T19:42:23.062Z,13.58
2022-10-11T19:45:25.225Z,13.62
2022-10-11T19:48:27.047Z,13.49
2022-10-11T19:51:30.822Z,13.34
2022-10-11T19:54:32.678Z,13.30
2022-10-11T19:57:34.915Z,13.20
2022-10-11T20:00:36.644Z,13.28
2022-10-11T20:03:39.295Z,13.22
2022-10-11T20:06:43.146Z,13.27
2022-10-11T20:09:45.202Z,13.26
2022-10-11T20:12:47.117Z,13.27
2022-10-11T20:15:48.851Z,13.32
2022-10-11T20:18:51.982Z,13.27
2022-10-11T20:21:53.668Z,13.17
2022-10-11T20:24:55.717Z,13.15
2022-10-11T20:27:57.356Z,13.08
2022-10-11T20:31:00.767Z,13.10
2022-10-11T20:34:04.274Z,13.01
2022-10-11T20:37:06.817Z,12.88
2022-10-11T20:40:10.194Z,12.70
2022-10-11T20:43:11.884Z,12.69
2022-10-11T20:46:16.734Z,12.80
2022-10-11T20:49:20.006Z,12.66
2022-10-11T20:52:22.101Z,12.62
2022-10-11T20:55:23.876Z,12.52
2022-10-11T20:58:25.477Z,12.59
2022-10-11T21:01:33.662Z,12.46
2022-10-11T21:04:35.321Z,12.39
2022-10-11T21:07:37.077Z,12.32
2022-10-11T21:10:38.820Z,12.19
2022-10-11T21:13:41.051Z,12.29
2022-10-11T21:16:42.833Z,12.27
2022-10-11T21:19:44.461Z,12.35
2022-10-11T21:22:46.127Z,12.35
2022-10-11T21:25:47.743Z,12.30
2022-10-11T21:28:49.669Z,12.34
2022-10-11T21:31:51.488Z,12.32
2022-10-11T21:34:53.151Z,12.19
2022-10-11T21:37:56.026Z,12.00
2022-10-11T21:40:57.618Z,11.99
2022-10-11T21:43:59.660Z,12.00
2022-10-11T21:47:07.082Z,12.15
2022-10-11T21:50:09.284Z,12.02
2022-10-11T21:53:10.862Z,11.95
2022-10-11T21:56:12.727Z,11.92
2022-10-11T21:59:14.481Z,11.87
2022-10-11T22:02:18.454Z,11.74
2022-10-11T22:05:20.109Z,11.72
2022-10-11T22:08:23.150Z,11.59
2022-10-11T22:11:24.761Z,11.59
2022-10-11T22:14:26.988Z,11.80
2022-10-11T22:17:28.676Z,11.67
2022-10-11T22:20:33.107Z,11.74
2022-10-11T22:23:34.856Z,11.54
2022-10-11T22:26:36.481Z,11.55
2022-10-11T22:29:38.136Z,11.47
2022-10-11T22:32:39.726Z,11.47
2022-10-11T22:35:41.382Z,11.29
2022-10-11T22:38:43.967Z,11.31
2022-10-11T22:41:45.729Z,11.30
2022-10-11T22:44:52.489Z,11.35
2022-10-11T22:47:56.997Z,11.32
2022-10-11T22:50:58.774Z,11.26
2022-10-11T22:54:00.458Z,11.44
2022-10-11T22:57:02.936Z,11.43
2022-10-11T23:00:05.423Z,11.35
2022-10-11T23:03:12.240Z,11.21
2022-10-11T23:06:13.968Z,11.21
2022-10-11T23:09:15.642Z,11.23
2022-10-11T23:12:17.311Z,11.18
2022-10-11T23:15:19.086Z,11.23
2022-10-11T23:18:20.670Z,11.03
2022-10-11T23:21:22.392Z,11.07
2022-10-11T23:24:24.165Z,11.08
2022-10-11T23:27:25.795Z,11.03
2022-10-11T23:30:28.331Z,11.14
2022-10-11T23:33:30.001Z,11.08
2022-10-11T23:36:32.262Z,11.04
2022-10-11T23:39:33.934Z,11.09
2022-10-11T23:42:35.632Z,11.08
2022-10-11T23:45:37.300Z,10.78
2022-10-11T23:48:39.067Z,10.83
2022-10-11T23:51:40.829Z,10.87
2022-10-11T23:54:42.477Z,10.84
2022-10-11T23:57:44.138Z,10.57
